sensor_id;sensor_type;location;lat;lon;timestamp;temperature;humidity
11122;DHT22;5615;49.304;10.576;2023-04-25T00:01:20;7.10;99.90
11122;DHT22;5615;49.304;10.576;2023-04-25T00:03:47;7.10;99.90
11122;DHT22;5615;49.304;10.576;2023-04-25T00:06:13;7.10;99.90
11122;DHT22;5615;49.304;10.576;2023-04-25T00:08:40;7.10;99.90
11122;DHT22;5615;49.304;10.576;2023-04-25T00:11:08;7.10;99.90
11122;DHT22;5615;49.304;10.576;2023-04-25T00:13:35;7.20;99.90
11122;DHT22;5615;49.304;10.576;2023-04-25T00:16:02;7.20;99.90
11122;DHT22;5615;49.304;10.576;2023-04-25T00:18:29;7.20;99.90
11122;DHT22;5615;49.304;10.576;2023-04-25T00:20:58;7.10;99.90
11122;DHT22;5615;49.304;10.576;2023-04-25T00:23:25;7.10;99.90
11122;DHT22;5615;49.304;10.576;2023-04-25T00:25:52;7.10;99.90
11122;DHT22;5615;49.304;10.576;2023-04-25T00:28:19;7.10;99.90
11122;DHT22;5615;49.304;10.576;2023-04-25T00:30:46;7.00;99.90
11122;DHT22;5615;49.304;10.576;2023-04-25T00:33:13;7.10;99.90
11122;DHT22;5615;49.304;10.576;2023-04-25T00:35:39;7.10;99.90
11122;DHT22;5615;49.304;10.576;2023-04-25T00:38:06;7.00;99.90
11122;DHT22;5615;49.304;10.576;2023-04-25T00:40:33;7.00;99.90
11122;DHT22;5615;49.304;10.576;2023-04-25T00:42:59;7.00;99.90
11122;DHT22;5615;49.304;10.576;2023-04-25T00:45:29;7.00;99.90
11122;DHT22;5615;49.304;10.576;2023-04-25T00:47:56;6.90;99.90
11122;DHT22;5615;49.304;10.576;2023-04-25T00:50:23;6.90;99.90
11122;DHT22;5615;49.304;10.576;2023-04-25T00:52:50;7.00;99.90
11122;DHT22;5615;49.304;10.576;2023-04-25T00:55:17;7.00;99.90
11122;DHT22;5615;49.304;10.576;2023-04-25T00:57:43;7.10;99.90
11122;DHT22;5615;49.304;10.576;2023-04-25T01:00:10;7.10;99.90
11122;DHT22;5615;49.304;10.576;2023-04-25T01:02:40;7.10;99.90
11122;DHT22;5615;49.304;10.576;2023-04-25T01:05:08;7.10;99.90
11122;DHT22;5615;49.304;10.576;2023-04-25T01:07:34;7.10;99.90
11122;DHT22;5615;49.304;10.576;2023-04-25T01:10:02;7.00;99.90
11122;DHT22;5615;49.304;10.576;2023-04-25T01:12:29;7.10;99.90
11122;DHT22;5615;49.304;10.576;2023-04-25T01:14:56;7.00;99.90
11122;DHT22;5615;49.304;10.576;2023-04-25T01:17:23;7.00;99.90
11122;DHT22;5615;49.304;10.576;2023-04-25T01:19:51;7.00;99.90
11122;DHT22;5615;49.304;10.576;2023-04-25T01:22:19;7.00;99.90
11122;DHT22;5615;49.304;10.576;2023-04-25T01:24:46;7.00;99.90
11122;DHT22;5615;49.304;10.576;2023-04-25T01:27:13;7.00;99.90
11122;DHT22;5615;49.304;10.576;2023-04-25T01:29:40;7.00;99.90
11122;DHT22;5615;49.304;10.576;2023-04-25T01:32:07;7.00;99.90
11122;DHT22;5615;49.304;10.576;2023-04-25T01:34:34;7.00;99.90
11122;DHT22;5615;49.304;10.576;2023-04-25T01:37:01;6.90;99.90
11122;DHT22;5615;49.304;10.576;2023-04-25T01:39:29;6.90;99.90
11122;DHT22;5615;49.304;10.576;2023-04-25T01:41:56;6.90;99.90
11122;DHT22;5615;49.304;10.576;2023-04-25T01:44:23;6.90;99.90
11122;DHT22;5615;49.304;10.576;2023-04-25T01:46:50;6.90;99.90
11122;DHT22;5615;49.304;10.576;2023-04-25T01:49:17;6.90;99.90
11122;DHT22;5615;49.304;10.576;2023-04-25T01:51:44;6.90;99.90
11122;DHT22;5615;49.304;10.576;2023-04-25T01:54:11;6.90;99.90
11122;DHT22;5615;49.304;10.576;2023-04-25T01:56:40;6.90;99.90
11122;DHT22;5615;49.304;10.576;2023-04-25T01:59:06;6.90;99.90
11122;DHT22;5615;49.304;10.576;2023-04-25T02:01:34;7.00;99.90
11122;DHT22;5615;49.304;10.576;2023-04-25T02:04:00;6.90;99.90
11122;DHT22;5615;49.304;10.576;2023-04-25T02:06:27;6.90;99.90
11122;DHT22;5615;49.304;10.576;2023-04-25T02:08:53;6.90;99.90
11122;DHT22;5615;49.304;10.576;2023-04-25T02:11:20;6.90;99.90
11122;DHT22;5615;49.304;10.576;2023-04-25T02:13:48;6.90;99.90
11122;DHT22;5615;49.304;10.576;2023-04-25T02:16:15;6.90;99.90
11122;DHT22;5615;49.304;10.576;2023-04-25T02:18:41;6.80;99.90
11122;DHT22;5615;49.304;10.576;2023-04-25T02:21:08;6.80;99.90
11122;DHT22;5615;49.304;10.576;2023-04-25T02:23:34;6.80;99.90
11122;DHT22;5615;49.304;10.576;2023-04-25T02:26:01;6.80;99.90
11122;DHT22;5615;49.304;10.576;2023-04-25T02:28:28;6.80;99.90
11122;DHT22;5615;49.304;10.576;2023-04-25T02:30:56;6.80;99.90
11122;DHT22;5615;49.304;10.576;2023-04-25T02:33:22;6.80;99.90
11122;DHT22;5615;49.304;10.576;2023-04-25T02:35:49;6.70;99.90
11122;DHT22;5615;49.304;10.576;2023-04-25T02:38:16;6.70;99.90
11122;DHT22;5615;49.304;10.576;2023-04-25T02:40:42;6.70;99.90
11122;DHT22;5615;49.304;10.576;2023-04-25T02:43:09;6.80;99.90
11122;DHT22;5615;49.304;10.576;2023-04-25T02:45:36;6.70;99.90
11122;DHT22;5615;49.304;10.576;2023-04-25T02:48:04;6.60;99.90
11122;DHT22;5615;49.304;10.576;2023-04-25T02:50:31;6.60;99.90
11122;DHT22;5615;49.304;10.576;2023-04-25T02:52:58;6.60;99.90
11122;DHT22;5615;49.304;10.576;2023-04-25T02:55:24;6.60;99.90
11122;DHT22;5615;49.304;10.576;2023-04-25T02:57:51;6.50;99.90
11122;DHT22;5615;49.304;10.576;2023-04-25T03:00:18;6.50;99.90
11122;DHT22;5615;49.304;10.576;2023-04-25T03:02:44;6.40;99.90
11122;DHT22;5615;49.304;10.576;2023-04-25T03:05:12;6.40;99.90
11122;DHT22;5615;49.304;10.576;2023-04-25T03:07:39;6.40;99.90
11122;DHT22;5615;49.304;10.576;2023-04-25T03:10:06;6.40;99.90
11122;DHT22;5615;49.304;10.576;2023-04-25T03:12:33;6.50;99.90
11122;DHT22;5615;49.304;10.576;2023-04-25T03:15:00;6.50;99.90
11122;DHT22;5615;49.304;10.576;2023-04-25T03:17:26;6.50;99.90
11122;DHT22;5615;49.304;10.576;2023-04-25T03:19:54;6.50;99.90
11122;DHT22;5615;49.304;10.576;2023-04-25T03:22:23;6.50;99.90
11122;DHT22;5615;49.304;10.576;2023-04-25T03:24:50;6.50;99.90
11122;DHT22;5615;49.304;10.576;2023-04-25T03:27:17;6.50;99.90
11122;DHT22;5615;49.304;10.576;2023-04-25T03:29:43;6.50;99.90
11122;DHT22;5615;49.304;10.576;2023-04-25T03:32:10;6.50;99.90
11122;DHT22;5615;49.304;10.576;2023-04-25T03:34:36;6.50;99.90
11122;DHT22;5615;49.304;10.576;2023-04-25T03:37:03;6.50;99.90
11122;DHT22;5615;49.304;10.576;2023-04-25T03:39:31;6.50;99.90
11122;DHT22;5615;49.304;10.576;2023-04-25T03:41:57;6.50;99.90
11122;DHT22;5615;49.304;10.576;2023-04-25T03:44:24;6.50;99.90
11122;DHT22;5615;49.304;10.576;2023-04-25T03:46:51;6.50;99.90
11122;DHT22;5615;49.304;10.576;2023-04-25T03:49:17;6.50;99.90
11122;DHT22;5615;49.304;10.576;2023-04-25T03:51:44;6.50;99.90
11122;DHT22;5615;49.304;10.576;2023-04-25T03:54:11;6.50;99.90
11122;DHT22;5615;49.304;10.576;2023-04-25T03:56:38;6.50;99.90
11122;DHT22;5615;49.304;10.576;2023-04-25T03:59:05;6.50;99.90
11122;DHT22;5615;49.304;10.576;2023-04-25T04:01:32;6.50;99.90
11122;DHT22;5615;49.304;10.576;2023-04-25T04:03:59;6.50;99.90
11122;DHT22;5615;49.304;10.576;2023-04-25T04:06:25;6.50;99.90
11122;DHT22;5615;49.304;10.576;2023-04-25T04:08:52;6.50;99.90
11122;DHT22;5615;49.304;10.576;2023-04-25T04:11:19;6.50;99.90
11122;DHT22;5615;49.304;10.576;2023-04-25T04:13:47;6.50;99.90
11122;DHT22;5615;49.304;10.576;2023-04-25T04:16:14;6.50;99.90
11122;DHT22;5615;49.304;10.576;2023-04-25T04:18:41;6.40;99.90
11122;DHT22;5615;49.304;10.576;2023-04-25T04:21:07;6.40;99.90
11122;DHT22;5615;49.304;10.576;2023-04-25T04:23:34;6.30;99.90
11122;DHT22;5615;49.304;10.576;2023-04-25T04:26:01;6.40;99.90
11122;DHT22;5615;49.304;10.576;2023-04-25T04:28:28;6.40;99.90
11122;DHT22;5615;49.304;10.576;2023-04-25T04:30:56;6.40;99.90
11122;DHT22;5615;49.304;10.576;2023-04-25T04:33:23;6.50;99.90
11122;DHT22;5615;49.304;10.576;2023-04-25T04:35:50;6.50;99.90
11122;DHT22;5615;49.304;10.576;2023-04-25T04:38:17;6.40;99.90
11122;DHT22;5615;49.304;10.576;2023-04-25T04:40:46;6.50;99.90
11122;DHT22;5615;49.304;10.576;2023-04-25T04:43:13;6.50;99.90
11122;DHT22;5615;49.304;10.576;2023-04-25T04:45:42;6.50;99.90
11122;DHT22;5615;49.304;10.576;2023-04-25T04:48:11;6.50;99.90
11122;DHT22;5615;49.304;10.576;2023-04-25T04:50:39;6.50;99.90
11122;DHT22;5615;49.304;10.576;2023-04-25T04:53:06;6.40;99.90
11122;DHT22;5615;49.304;10.576;2023-04-25T04:55:33;6.40;99.90
11122;DHT22;5615;49.304;10.576;2023-04-25T04:58:00;6.40;99.90
11122;DHT22;5615;49.304;10.576;2023-04-25T05:00:26;6.40;99.90
11122;DHT22;5615;49.304;10.576;2023-04-25T05:02:54;6.40;99.90
11122;DHT22;5615;49.304;10.576;2023-04-25T05:05:22;6.50;99.90
11122;DHT22;5615;49.304;10.576;2023-04-25T05:07:49;6.50;99.90
11122;DHT22;5615;49.304;10.576;2023-04-25T05:10:16;6.60;99.90
11122;DHT22;5615;49.304;10.576;2023-04-25T05:12:43;6.60;99.90
11122;DHT22;5615;49.304;10.576;2023-04-25T05:15:10;6.60;99.90
11122;DHT22;5615;49.304;10.576;2023-04-25T05:17:37;6.60;99.90
11122;DHT22;5615;49.304;10.576;2023-04-25T05:20:05;6.70;99.90
11122;DHT22;5615;49.304;10.576;2023-04-25T05:22:33;6.60;99.90
11122;DHT22;5615;49.304;10.576;2023-04-25T05:25:00;6.70;99.90
11122;DHT22;5615;49.304;10.576;2023-04-25T05:27:26;6.70;99.90
11122;DHT22;5615;49.304;10.576;2023-04-25T05:29:53;6.80;99.90
11122;DHT22;5615;49.304;10.576;2023-04-25T05:32:20;6.80;99.90
11122;DHT22;5615;49.304;10.576;2023-04-25T05:34:46;6.90;99.90
11122;DHT22;5615;49.304;10.576;2023-04-25T05:37:13;6.90;99.90
11122;DHT22;5615;49.304;10.576;2023-04-25T05:39:41;7.00;99.90
11122;DHT22;5615;49.304;10.576;2023-04-25T05:42:07;7.00;99.90
11122;DHT22;5615;49.304;10.576;2023-04-25T05:44:34;6.90;99.90
11122;DHT22;5615;49.304;10.576;2023-04-25T05:47:01;6.90;99.90
11122;DHT22;5615;49.304;10.576;2023-04-25T05:49:29;6.90;99.90
11122;DHT22;5615;49.304;10.576;2023-04-25T05:51:56;6.90;99.90
11122;DHT22;5615;49.304;10.576;2023-04-25T05:54:23;6.80;99.90
11122;DHT22;5615;49.304;10.576;2023-04-25T05:56:51;6.80;99.90
11122;DHT22;5615;49.304;10.576;2023-04-25T05:59:17;6.90;99.90
11122;DHT22;5615;49.304;10.576;2023-04-25T06:01:44;6.90;99.90
11122;DHT22;5615;49.304;10.576;2023-04-25T06:04:10;7.00;99.90
11122;DHT22;5615;49.304;10.576;2023-04-25T06:06:37;6.90;99.90
11122;DHT22;5615;49.304;10.576;2023-04-25T06:09:04;6.90;99.90
11122;DHT22;5615;49.304;10.576;2023-04-25T06:11:30;6.90;99.90
11122;DHT22;5615;49.304;10.576;2023-04-25T06:13:58;7.00;99.90
11122;DHT22;5615;49.304;10.576;2023-04-25T06:16:25;7.00;99.90
11122;DHT22;5615;49.304;10.576;2023-04-25T06:18:52;6.90;99.90
11122;DHT22;5615;49.304;10.576;2023-04-25T06:21:19;6.80;99.90
11122;DHT22;5615;49.304;10.576;2023-04-25T06:23:45;6.80;99.90
11122;DHT22;5615;49.304;10.576;2023-04-25T06:26:12;6.90;99.90
11122;DHT22;5615;49.304;10.576;2023-04-25T06:28:39;7.00;99.90
11122;DHT22;5615;49.304;10.576;2023-04-25T06:31:07;7.00;99.90
11122;DHT22;5615;49.304;10.576;2023-04-25T06:33:33;6.90;99.90
11122;DHT22;5615;49.304;10.576;2023-04-25T06:36:00;7.00;99.90
11122;DHT22;5615;49.304;10.576;2023-04-25T06:38:26;6.90;99.90
11122;DHT22;5615;49.304;10.576;2023-04-25T06:40:53;7.00;99.90
11122;DHT22;5615;49.304;10.576;2023-04-25T06:43:19;7.00;99.90
11122;DHT22;5615;49.304;10.576;2023-04-25T06:45:46;7.00;99.90
11122;DHT22;5615;49.304;10.576;2023-04-25T06:48:14;6.90;99.90
11122;DHT22;5615;49.304;10.576;2023-04-25T06:50:41;7.00;99.90
11122;DHT22;5615;49.304;10.576;2023-04-25T06:53:08;7.20;99.90
11122;DHT22;5615;49.304;10.576;2023-04-25T06:55:36;7.20;99.90
11122;DHT22;5615;49.304;10.576;2023-04-25T06:58:03;7.20;99.90
11122;DHT22;5615;49.304;10.576;2023-04-25T07:00:30;7.20;99.90
11122;DHT22;5615;49.304;10.576;2023-04-25T07:02:57;7.00;99.90
11122;DHT22;5615;49.304;10.576;2023-04-25T07:05:25;6.80;99.90
11122;DHT22;5615;49.304;10.576;2023-04-25T07:07:52;6.40;99.90
11122;DHT22;5615;49.304;10.576;2023-04-25T07:10:18;6.30;99.90
11122;DHT22;5615;49.304;10.576;2023-04-25T07:12:46;6.20;99.90
11122;DHT22;5615;49.304;10.576;2023-04-25T07:15:13;6.20;99.90
11122;DHT22;5615;49.304;10.576;2023-04-25T07:17:39;6.30;99.90
11122;DHT22;5615;49.304;10.576;2023-04-25T07:20:07;6.40;99.90
11122;DHT22;5615;49.304;10.576;2023-04-25T07:22:35;6.40;99.90
11122;DHT22;5615;49.304;10.576;2023-04-25T07:25:02;6.50;99.90
11122;DHT22;5615;49.304;10.576;2023-04-25T07:27:29;6.40;99.90
11122;DHT22;5615;49.304;10.576;2023-04-25T07:29:56;6.50;99.90
11122;DHT22;5615;49.304;10.576;2023-04-25T07:32:23;6.50;99.90
11122;DHT22;5615;49.304;10.576;2023-04-25T07:34:50;6.60;99.90
11122;DHT22;5615;49.304;10.576;2023-04-25T07:37:16;6.70;99.90
11122;DHT22;5615;49.304;10.576;2023-04-25T07:39:45;6.80;99.90
11122;DHT22;5615;49.304;10.576;2023-04-25T07:42:12;6.80;99.90
11122;DHT22;5615;49.304;10.576;2023-04-25T07:44:39;7.00;99.90
11122;DHT22;5615;49.304;10.576;2023-04-25T07:47:05;7.10;99.90
11122;DHT22;5615;49.304;10.576;2023-04-25T07:49:33;7.30;99.90
11122;DHT22;5615;49.304;10.576;2023-04-25T07:52:01;7.60;99.90
11122;DHT22;5615;49.304;10.576;2023-04-25T07:54:27;7.70;99.90
11122;DHT22;5615;49.304;10.576;2023-04-25T07:56:55;7.70;99.90
11122;DHT22;5615;49.304;10.576;2023-04-25T07:59:22;7.70;99.90
11122;DHT22;5615;49.304;10.576;2023-04-25T08:01:48;7.60;99.90
11122;DHT22;5615;49.304;10.576;2023-04-25T08:04:15;7.70;99.90
11122;DHT22;5615;49.304;10.576;2023-04-25T08:06:42;7.70;99.90
11122;DHT22;5615;49.304;10.576;2023-04-25T08:09:09;8.00;99.90
11122;DHT22;5615;49.304;10.576;2023-04-25T08:11:36;8.20;99.90
11122;DHT22;5615;49.304;10.576;2023-04-25T08:14:05;8.20;99.90
11122;DHT22;5615;49.304;10.576;2023-04-25T08:16:31;8.10;99.90
11122;DHT22;5615;49.304;10.576;2023-04-25T08:18:59;8.00;99.90
11122;DHT22;5615;49.304;10.576;2023-04-25T08:21:26;8.00;99.90
11122;DHT22;5615;49.304;10.576;2023-04-25T08:23:53;8.20;99.90
11122;DHT22;5615;49.304;10.576;2023-04-25T08:26:19;8.40;99.90
11122;DHT22;5615;49.304;10.576;2023-04-25T08:28:46;8.50;99.90
11122;DHT22;5615;49.304;10.576;2023-04-25T08:31:14;8.70;99.90
11122;DHT22;5615;49.304;10.576;2023-04-25T08:33:41;8.60;99.90
11122;DHT22;5615;49.304;10.576;2023-04-25T08:36:08;8.80;99.90
11122;DHT22;5615;49.304;10.576;2023-04-25T08:38:34;8.70;99.90
11122;DHT22;5615;49.304;10.576;2023-04-25T08:41:02;8.70;99.90
11122;DHT22;5615;49.304;10.576;2023-04-25T08:43:29;9.00;99.90
11122;DHT22;5615;49.304;10.576;2023-04-25T08:45:59;9.50;99.90
11122;DHT22;5615;49.304;10.576;2023-04-25T08:48:28;10.30;99.90
11122;DHT22;5615;49.304;10.576;2023-04-25T08:50:56;10.60;99.90
11122;DHT22;5615;49.304;10.576;2023-04-25T08:53:26;10.10;99.90
11122;DHT22;5615;49.304;10.576;2023-04-25T08:55:53;9.80;99.90
11122;DHT22;5615;49.304;10.576;2023-04-25T08:58:20;9.50;99.90
11122;DHT22;5615;49.304;10.576;2023-04-25T09:00:48;9.60;99.90
11122;DHT22;5615;49.304;10.576;2023-04-25T09:03:15;10.20;99.90
11122;DHT22;5615;49.304;10.576;2023-04-25T09:05:43;10.80;99.90
11122;DHT22;5615;49.304;10.576;2023-04-25T09:08:10;11.30;99.90
11122;DHT22;5615;49.304;10.576;2023-04-25T09:10:38;10.70;99.90
11122;DHT22;5615;49.304;10.576;2023-04-25T09:13:06;10.50;99.90
11122;DHT22;5615;49.304;10.576;2023-04-25T09:15:47;10.90;99.90
11122;DHT22;5615;49.304;10.576;2023-04-25T09:18:13;10.80;99.90
11122;DHT22;5615;49.304;10.576;2023-04-25T09:20:43;10.50;99.90
11122;DHT22;5615;49.304;10.576;2023-04-25T09:23:10;10.60;99.90
11122;DHT22;5615;49.304;10.576;2023-04-25T09:25:37;10.90;99.90
11122;DHT22;5615;49.304;10.576;2023-04-25T09:28:06;11.70;99.90
11122;DHT22;5615;49.304;10.576;2023-04-25T09:30:34;11.90;99.90
11122;DHT22;5615;49.304;10.576;2023-04-25T09:33:05;12.00;99.90
11122;DHT22;5615;49.304;10.576;2023-04-25T09:35:36;11.70;99.90
11122;DHT22;5615;49.304;10.576;2023-04-25T09:38:09;12.00;99.90
11122;DHT22;5615;49.304;10.576;2023-04-25T09:40:39;12.20;99.90
11122;DHT22;5615;49.304;10.576;2023-04-25T09:43:09;12.20;99.90
11122;DHT22;5615;49.304;10.576;2023-04-25T09:45:41;12.10;99.90
11122;DHT22;5615;49.304;10.576;2023-04-25T09:48:11;12.00;99.90
11122;DHT22;5615;49.304;10.576;2023-04-25T09:50:38;11.40;99.90
11122;DHT22;5615;49.304;10.576;2023-04-25T09:53:05;11.40;99.90
11122;DHT22;5615;49.304;10.576;2023-04-25T09:55:34;12.10;99.90
11122;DHT22;5615;49.304;10.576;2023-04-25T09:58:04;12.40;99.90
11122;DHT22;5615;49.304;10.576;2023-04-25T10:00:32;11.80;99.90
11122;DHT22;5615;49.304;10.576;2023-04-25T10:03:01;11.80;99.90
11122;DHT22;5615;49.304;10.576;2023-04-25T10:05:30;12.20;99.90
11122;DHT22;5615;49.304;10.576;2023-04-25T10:07:57;12.50;99.90
11122;DHT22;5615;49.304;10.576;2023-04-25T10:10:24;13.20;99.90
11122;DHT22;5615;49.304;10.576;2023-04-25T10:12:54;12.40;99.90
11122;DHT22;5615;49.304;10.576;2023-04-25T10:15:21;11.90;99.90
11122;DHT22;5615;49.304;10.576;2023-04-25T10:17:49;12.50;99.90
11122;DHT22;5615;49.304;10.576;2023-04-25T10:20:16;12.70;99.90
11122;DHT22;5615;49.304;10.576;2023-04-25T10:22:44;13.10;99.90
11122;DHT22;5615;49.304;10.576;2023-04-25T10:25:14;13.60;99.90
11122;DHT22;5615;49.304;10.576;2023-04-25T10:27:41;13.30;99.90
11122;DHT22;5615;49.304;10.576;2023-04-25T10:30:11;12.80;99.90
11122;DHT22;5615;49.304;10.576;2023-04-25T10:32:41;13.10;99.90
11122;DHT22;5615;49.304;10.576;2023-04-25T10:35:13;13.90;99.90
11122;DHT22;5615;49.304;10.576;2023-04-25T10:38:03;13.90;98.70
11122;DHT22;5615;49.304;10.576;2023-04-25T10:40:30;12.90;98.90
11122;DHT22;5615;49.304;10.576;2023-04-25T10:46:00;14.20;98.10
11122;DHT22;5615;49.304;10.576;2023-04-25T10:48:28;13.40;98.00
11122;DHT22;5615;49.304;10.576;2023-04-25T10:51:07;13.10;98.70
11122;DHT22;5615;49.304;10.576;2023-04-25T10:53:34;13.00;99.90
11122;DHT22;5615;49.304;10.576;2023-04-25T10:56:09;13.50;99.40
11122;DHT22;5615;49.304;10.576;2023-04-25T10:58:36;13.00;98.60
11122;DHT22;5615;49.304;10.576;2023-04-25T11:01:04;13.20;97.80
11122;DHT22;5615;49.304;10.576;2023-04-25T11:03:30;13.00;96.30
11122;DHT22;5615;49.304;10.576;2023-04-25T11:05:58;12.60;96.80
11122;DHT22;5615;49.304;10.576;2023-04-25T11:08:39;12.90;96.90
11122;DHT22;5615;49.304;10.576;2023-04-25T11:11:11;12.60;97.50
11122;DHT22;5615;49.304;10.576;2023-04-25T11:13:38;11.70;98.70
11122;DHT22;5615;49.304;10.576;2023-04-25T11:16:08;11.50;99.30
11122;DHT22;5615;49.304;10.576;2023-04-25T11:18:35;11.60;99.80
11122;DHT22;5615;49.304;10.576;2023-04-25T11:21:03;11.90;99.50
11122;DHT22;5615;49.304;10.576;2023-04-25T11:23:30;11.60;99.70
11122;DHT22;5615;49.304;10.576;2023-04-25T11:25:57;11.50;99.90
11122;DHT22;5615;49.304;10.576;2023-04-25T11:28:26;11.40;99.90
11122;DHT22;5615;49.304;10.576;2023-04-25T11:30:53;11.90;99.90
11122;DHT22;5615;49.304;10.576;2023-04-25T11:33:25;12.60;99.90
11122;DHT22;5615;49.304;10.576;2023-04-25T11:35:53;12.80;99.60
11122;DHT22;5615;49.304;10.576;2023-04-25T11:38:21;13.00;99.40
11122;DHT22;5615;49.304;10.576;2023-04-25T11:40:50;12.90;99.10
11122;DHT22;5615;49.304;10.576;2023-04-25T11:43:17;12.80;98.70
11122;DHT22;5615;49.304;10.576;2023-04-25T11:45:46;12.60;98.80
11122;DHT22;5615;49.304;10.576;2023-04-25T11:48:13;12.90;99.20
11122;DHT22;5615;49.304;10.576;2023-04-25T11:50:41;12.30;98.80
11122;DHT22;5615;49.304;10.576;2023-04-25T11:53:08;12.00;99.70
11122;DHT22;5615;49.304;10.576;2023-04-25T11:55:35;11.80;98.60
11122;DHT22;5615;49.304;10.576;2023-04-25T11:58:03;12.10;98.40
11122;DHT22;5615;49.304;10.576;2023-04-25T12:00:31;11.70;98.60
11122;DHT22;5615;49.304;10.576;2023-04-25T12:02:58;11.60;99.00
11122;DHT22;5615;49.304;10.576;2023-04-25T12:05:26;11.40;99.70
11122;DHT22;5615;49.304;10.576;2023-04-25T12:07:54;11.50;99.90
11122;DHT22;5615;49.304;10.576;2023-04-25T12:10:21;11.40;99.90
11122;DHT22;5615;49.304;10.576;2023-04-25T12:12:48;11.80;99.90
11122;DHT22;5615;49.304;10.576;2023-04-25T12:15:16;11.80;99.90
11122;DHT22;5615;49.304;10.576;2023-04-25T12:17:45;12.20;99.80
11122;DHT22;5615;49.304;10.576;2023-04-25T12:20:13;12.80;99.60
11122;DHT22;5615;49.304;10.576;2023-04-25T12:22:41;12.40;99.80
11122;DHT22;5615;49.304;10.576;2023-04-25T12:25:11;12.20;99.90
11122;DHT22;5615;49.304;10.576;2023-04-25T12:27:38;12.00;99.90
11122;DHT22;5615;49.304;10.576;2023-04-25T12:30:08;11.70;99.90
11122;DHT22;5615;49.304;10.576;2023-04-25T12:32:35;11.60;99.90
11122;DHT22;5615;49.304;10.576;2023-04-25T12:35:03;11.60;99.90
11122;DHT22;5615;49.304;10.576;2023-04-25T12:37:30;11.80;99.90
11122;DHT22;5615;49.304;10.576;2023-04-25T12:39:56;11.80;99.90
11122;DHT22;5615;49.304;10.576;2023-04-25T12:42:24;11.60;99.90
11122;DHT22;5615;49.304;10.576;2023-04-25T12:44:51;11.20;99.90
11122;DHT22;5615;49.304;10.576;2023-04-25T12:47:18;11.00;99.90
11122;DHT22;5615;49.304;10.576;2023-04-25T12:49:44;10.70;99.90
11122;DHT22;5615;49.304;10.576;2023-04-25T12:52:11;10.60;99.90
11122;DHT22;5615;49.304;10.576;2023-04-25T12:54:37;10.60;99.90
11122;DHT22;5615;49.304;10.576;2023-04-25T12:57:04;10.50;99.90
11122;DHT22;5615;49.304;10.576;2023-04-25T12:59:32;10.40;99.90
11122;DHT22;5615;49.304;10.576;2023-04-25T13:01:59;10.40;99.90
11122;DHT22;5615;49.304;10.576;2023-04-25T13:04:25;10.30;99.90
11122;DHT22;5615;49.304;10.576;2023-04-25T13:06:52;10.20;99.90
11122;DHT22;5615;49.304;10.576;2023-04-25T13:09:19;10.20;99.90
11122;DHT22;5615;49.304;10.576;2023-04-25T13:11:45;10.30;99.90
11122;DHT22;5615;49.304;10.576;2023-04-25T13:14:12;10.30;99.90
11122;DHT22;5615;49.304;10.576;2023-04-25T13:16:40;10.30;99.90
11122;DHT22;5615;49.304;10.576;2023-04-25T13:19:07;10.70;99.90
11122;DHT22;5615;49.304;10.576;2023-04-25T13:21:36;10.80;99.90
11122;DHT22;5615;49.304;10.576;2023-04-25T13:24:03;10.80;99.90
11122;DHT22;5615;49.304;10.576;2023-04-25T13:26:30;10.60;99.90
11122;DHT22;5615;49.304;10.576;2023-04-25T13:28:57;10.60;99.90
11122;DHT22;5615;49.304;10.576;2023-04-25T13:31:25;10.70;99.90
11122;DHT22;5615;49.304;10.576;2023-04-25T13:33:53;10.60;99.90
11122;DHT22;5615;49.304;10.576;2023-04-25T13:36:20;10.60;99.90
11122;DHT22;5615;49.304;10.576;2023-04-25T13:38:47;10.70;99.90
11122;DHT22;5615;49.304;10.576;2023-04-25T13:41:14;11.00;99.90
11122;DHT22;5615;49.304;10.576;2023-04-25T13:43:44;11.00;99.90
11122;DHT22;5615;49.304;10.576;2023-04-25T13:46:12;11.20;99.90
11122;DHT22;5615;49.304;10.576;2023-04-25T13:48:40;10.90;99.90
11122;DHT22;5615;49.304;10.576;2023-04-25T13:51:13;10.70;99.90
11122;DHT22;5615;49.304;10.576;2023-04-25T13:53:41;10.50;99.90
11122;DHT22;5615;49.304;10.576;2023-04-25T13:56:07;10.50;99.90
11122;DHT22;5615;49.304;10.576;2023-04-25T13:58:34;10.50;99.90
11122;DHT22;5615;49.304;10.576;2023-04-25T14:01:01;10.80;99.90
11122;DHT22;5615;49.304;10.576;2023-04-25T14:03:28;11.40;99.90
11122;DHT22;5615;49.304;10.576;2023-04-25T14:05:55;11.60;98.90
11122;DHT22;5615;49.304;10.576;2023-04-25T14:08:23;11.20;99.00
11122;DHT22;5615;49.304;10.576;2023-04-25T14:10:50;11.20;99.80
11122;DHT22;5615;49.304;10.576;2023-04-25T14:13:17;11.30;99.70
11122;DHT22;5615;49.304;10.576;2023-04-25T14:15:43;11.10;99.90
11122;DHT22;5615;49.304;10.576;2023-04-25T14:18:10;11.20;99.90
11122;DHT22;5615;49.304;10.576;2023-04-25T14:20:37;11.30;99.90
11122;DHT22;5615;49.304;10.576;2023-04-25T14:23:03;11.80;99.90
11122;DHT22;5615;49.304;10.576;2023-04-25T14:25:31;13.00;99.10
11122;DHT22;5615;49.304;10.576;2023-04-25T14:27:58;14.40;97.10
11122;DHT22;5615;49.304;10.576;2023-04-25T14:30:25;15.00;95.40
11122;DHT22;5615;49.304;10.576;2023-04-25T14:32:52;15.00;94.40
11122;DHT22;5615;49.304;10.576;2023-04-25T14:35:18;13.80;95.00
11122;DHT22;5615;49.304;10.576;2023-04-25T14:37:45;14.20;93.80
11122;DHT22;5615;49.304;10.576;2023-04-25T14:40:12;13.70;93.30
11122;DHT22;5615;49.304;10.576;2023-04-25T14:42:42;13.40;94.40
11122;DHT22;5615;49.304;10.576;2023-04-25T14:45:09;13.80;94.10
11122;DHT22;5615;49.304;10.576;2023-04-25T14:47:36;14.00;94.20
11122;DHT22;5615;49.304;10.576;2023-04-25T14:50:04;13.60;94.70
11122;DHT22;5615;49.304;10.576;2023-04-25T14:52:30;13.20;95.30
11122;DHT22;5615;49.304;10.576;2023-04-25T14:54:57;12.40;95.40
11122;DHT22;5615;49.304;10.576;2023-04-25T14:57:25;12.10;96.10
11122;DHT22;5615;49.304;10.576;2023-04-25T14:59:53;11.80;96.70
11122;DHT22;5615;49.304;10.576;2023-04-25T15:02:19;11.60;97.30
11122;DHT22;5615;49.304;10.576;2023-04-25T15:04:46;11.40;98.00
11122;DHT22;5615;49.304;10.576;2023-04-25T15:07:13;11.30;98.80
11122;DHT22;5615;49.304;10.576;2023-04-25T15:09:40;11.50;98.40
11122;DHT22;5615;49.304;10.576;2023-04-25T15:12:07;12.00;98.40
11122;DHT22;5615;49.304;10.576;2023-04-25T15:14:34;12.40;97.30
11122;DHT22;5615;49.304;10.576;2023-04-25T15:17:02;13.10;96.30
11122;DHT22;5615;49.304;10.576;2023-04-25T15:19:28;12.30;95.50
11122;DHT22;5615;49.304;10.576;2023-04-25T15:21:55;12.00;96.50
11122;DHT22;5615;49.304;10.576;2023-04-25T15:24:25;11.90;96.60
11122;DHT22;5615;49.304;10.576;2023-04-25T15:26:52;11.80;97.20
11122;DHT22;5615;49.304;10.576;2023-04-25T15:29:19;11.60;97.20
11122;DHT22;5615;49.304;10.576;2023-04-25T15:31:45;11.10;98.30
11122;DHT22;5615;49.304;10.576;2023-04-25T15:34:13;10.90;98.50
11122;DHT22;5615;49.304;10.576;2023-04-25T15:36:40;10.60;99.00
11122;DHT22;5615;49.304;10.576;2023-04-25T15:39:06;10.40;99.70
11122;DHT22;5615;49.304;10.576;2023-04-25T15:41:33;10.30;99.90
11122;DHT22;5615;49.304;10.576;2023-04-25T15:44:00;10.20;99.90